sensor_id;sensor_type;location;lat;lon;timestamp;temperature;humidity
25450;DHT22;13371;52.080;5.624;2023-11-21T00:01:00;12.20;99.90
25450;DHT22;13371;52.080;5.624;2023-11-21T00:03:30;12.30;99.90
25450;DHT22;13371;52.080;5.624;2023-11-21T00:05:55;12.20;99.90
25450;DHT22;13371;52.080;5.624;2023-11-21T00:08:21;12.10;99.90
25450;DHT22;13371;52.080;5.624;2023-11-21T00:10:47;12.00;99.90
25450;DHT22;13371;52.080;5.624;2023-11-21T00:13:13;12.00;99.90
25450;DHT22;13371;52.080;5.624;2023-11-21T00:15:38;12.00;99.90
25450;DHT22;13371;52.080;5.624;2023-11-21T00:18:04;12.00;99.90
25450;DHT22;13371;52.080;5.624;2023-11-21T00:20:30;12.00;99.90
25450;DHT22;13371;52.080;5.624;2023-11-21T00:22:56;12.00;99.90
25450;DHT22;13371;52.080;5.624;2023-11-21T00:25:21;12.00;99.90
25450;DHT22;13371;52.080;5.624;2023-11-21T00:27:47;11.90;99.90
25450;DHT22;13371;52.080;5.624;2023-11-21T00:30:13;11.90;99.90
25450;DHT22;13371;52.080;5.624;2023-11-21T00:32:39;11.90;99.90
25450;DHT22;13371;52.080;5.624;2023-11-21T00:35:05;11.80;99.90
25450;DHT22;13371;52.080;5.624;2023-11-21T00:37:31;11.80;99.90
25450;DHT22;13371;52.080;5.624;2023-11-21T00:39:57;11.80;99.90
25450;DHT22;13371;52.080;5.624;2023-11-21T00:42:23;11.70;99.90
25450;DHT22;13371;52.080;5.624;2023-11-21T00:44:48;11.80;99.90
25450;DHT22;13371;52.080;5.624;2023-11-21T00:47:14;11.70;99.90
25450;DHT22;13371;52.080;5.624;2023-11-21T00:49:39;11.70;99.90
25450;DHT22;13371;52.080;5.624;2023-11-21T00:52:06;11.70;99.90
25450;DHT22;13371;52.080;5.624;2023-11-21T00:54:32;11.60;99.90
25450;DHT22;13371;52.080;5.624;2023-11-21T00:56:58;11.60;99.90
25450;DHT22;13371;52.080;5.624;2023-11-21T00:59:24;11.50;99.90
25450;DHT22;13371;52.080;5.624;2023-11-21T01:01:50;11.50;99.90
25450;DHT22;13371;52.080;5.624;2023-11-21T01:04:15;11.40;99.90
25450;DHT22;13371;52.080;5.624;2023-11-21T01:06:41;11.40;99.90
25450;DHT22;13371;52.080;5.624;2023-11-21T01:09:06;11.10;99.90
25450;DHT22;13371;52.080;5.624;2023-11-21T01:11:34;11.10;99.90
25450;DHT22;13371;52.080;5.624;2023-11-21T01:14:02;11.30;99.90
25450;DHT22;13371;52.080;5.624;2023-11-21T01:16:28;11.30;99.90
25450;DHT22;13371;52.080;5.624;2023-11-21T01:18:54;11.40;99.90
25450;DHT22;13371;52.080;5.624;2023-11-21T01:21:20;11.40;99.90
25450;DHT22;13371;52.080;5.624;2023-11-21T01:23:45;11.40;99.90
25450;DHT22;13371;52.080;5.624;2023-11-21T01:26:11;11.30;99.90
25450;DHT22;13371;52.080;5.624;2023-11-21T01:28:37;11.20;99.90
25450;DHT22;13371;52.080;5.624;2023-11-21T01:31:02;11.00;99.90
25450;DHT22;13371;52.080;5.624;2023-11-21T01:33:28;10.80;99.90
25450;DHT22;13371;52.080;5.624;2023-11-21T01:35:53;10.80;99.90
25450;DHT22;13371;52.080;5.624;2023-11-21T01:38:20;10.90;99.90
25450;DHT22;13371;52.080;5.624;2023-11-21T01:40:46;10.90;99.90
25450;DHT22;13371;52.080;5.624;2023-11-21T01:43:11;11.10;99.90
25450;DHT22;13371;52.080;5.624;2023-11-21T01:45:37;11.10;99.90
25450;DHT22;13371;52.080;5.624;2023-11-21T01:48:03;11.00;99.90
25450;DHT22;13371;52.080;5.624;2023-11-21T01:50:29;10.90;99.90
25450;DHT22;13371;52.080;5.624;2023-11-21T01:52:55;10.90;99.90
25450;DHT22;13371;52.080;5.624;2023-11-21T01:55:21;11.00;99.90
25450;DHT22;13371;52.080;5.624;2023-11-21T01:57:47;11.20;99.90
25450;DHT22;13371;52.080;5.624;2023-11-21T02:00:13;11.20;99.90
25450;DHT22;13371;52.080;5.624;2023-11-21T02:02:43;11.30;99.90
25450;DHT22;13371;52.080;5.624;2023-11-21T02:05:16;11.30;99.90
25450;DHT22;13371;52.080;5.624;2023-11-21T02:07:45;11.40;99.90
25450;DHT22;13371;52.080;5.624;2023-11-21T02:10:14;11.30;99.90
25450;DHT22;13371;52.080;5.624;2023-11-21T02:12:44;11.30;99.90
25450;DHT22;13371;52.080;5.624;2023-11-21T02:15:13;11.30;99.90
25450;DHT22;13371;52.080;5.624;2023-11-21T02:17:46;11.30;99.90
25450;DHT22;13371;52.080;5.624;2023-11-21T02:20:17;11.40;99.90
25450;DHT22;13371;52.080;5.624;2023-11-21T02:22:48;11.10;99.90
25450;DHT22;13371;52.080;5.624;2023-11-21T02:25:14;11.30;99.90
25450;DHT22;13371;52.080;5.624;2023-11-21T02:27:39;11.30;99.90
25450;DHT22;13371;52.080;5.624;2023-11-21T02:30:05;11.40;99.90
25450;DHT22;13371;52.080;5.624;2023-11-21T02:32:33;11.40;99.90
25450;DHT22;13371;52.080;5.624;2023-11-21T02:34:59;11.40;99.90
25450;DHT22;13371;52.080;5.624;2023-11-21T02:37:27;11.50;99.90
25450;DHT22;13371;52.080;5.624;2023-11-21T02:39:52;11.50;99.90
25450;DHT22;13371;52.080;5.624;2023-11-21T02:42:18;11.60;99.90
25450;DHT22;13371;52.080;5.624;2023-11-21T02:44:44;11.60;99.90
25450;DHT22;13371;52.080;5.624;2023-11-21T02:47:10;11.60;99.90
25450;DHT22;13371;52.080;5.624;2023-11-21T02:49:35;11.60;99.90
25450;DHT22;13371;52.080;5.624;2023-11-21T02:52:01;11.60;99.90
25450;DHT22;13371;52.080;5.624;2023-11-21T02:54:27;11.60;99.90
25450;DHT22;13371;52.080;5.624;2023-11-21T02:56:52;11.70;99.90
25450;DHT22;13371;52.080;5.624;2023-11-21T02:59:18;11.70;99.90
25450;DHT22;13371;52.080;5.624;2023-11-21T03:01:45;11.60;99.90
25450;DHT22;13371;52.080;5.624;2023-11-21T03:04:11;11.70;99.90
25450;DHT22;13371;52.080;5.624;2023-11-21T03:06:44;11.70;99.90
25450;DHT22;13371;52.080;5.624;2023-11-21T03:09:10;11.70;99.90
25450;DHT22;13371;52.080;5.624;2023-11-21T03:11:38;11.50;99.90
25450;DHT22;13371;52.080;5.624;2023-11-21T03:14:03;11.40;99.90
25450;DHT22;13371;52.080;5.624;2023-11-21T03:16:29;11.60;99.90
25450;DHT22;13371;52.080;5.624;2023-11-21T03:18:54;11.50;99.90
25450;DHT22;13371;52.080;5.624;2023-11-21T03:21:20;11.60;99.90
25450;DHT22;13371;52.080;5.624;2023-11-21T03:23:46;11.70;99.90
25450;DHT22;13371;52.080;5.624;2023-11-21T03:26:14;11.80;99.90
25450;DHT22;13371;52.080;5.624;2023-11-21T03:28:40;11.70;99.90
25450;DHT22;13371;52.080;5.624;2023-11-21T03:31:05;11.80;99.90
25450;DHT22;13371;52.080;5.624;2023-11-21T03:33:32;11.70;99.90
25450;DHT22;13371;52.080;5.624;2023-11-21T03:35:58;11.60;99.90
25450;DHT22;13371;52.080;5.624;2023-11-21T03:38:23;11.70;99.90
25450;DHT22;13371;52.080;5.624;2023-11-21T03:40:49;11.80;99.90
25450;DHT22;13371;52.080;5.624;2023-11-21T03:43:16;11.40;99.90
25450;DHT22;13371;52.080;5.624;2023-11-21T03:45:41;11.20;99.90
25450;DHT22;13371;52.080;5.624;2023-11-21T03:48:07;11.40;99.90
25450;DHT22;13371;52.080;5.624;2023-11-21T03:50:34;11.70;99.90
25450;DHT22;13371;52.080;5.624;2023-11-21T03:52:59;11.80;99.90
25450;DHT22;13371;52.080;5.624;2023-11-21T03:55:25;11.70;99.90
25450;DHT22;13371;52.080;5.624;2023-11-21T03:57:52;11.90;99.90
25450;DHT22;13371;52.080;5.624;2023-11-21T04:00:18;11.90;99.90
25450;DHT22;13371;52.080;5.624;2023-11-21T04:02:45;12.00;99.90
25450;DHT22;13371;52.080;5.624;2023-11-21T04:05:11;11.90;99.90
25450;DHT22;13371;52.080;5.624;2023-11-21T04:07:37;12.00;99.90
25450;DHT22;13371;52.080;5.624;2023-11-21T04:10:05;12.00;99.90
25450;DHT22;13371;52.080;5.624;2023-11-21T04:12:33;12.00;99.90
25450;DHT22;13371;52.080;5.624;2023-11-21T04:14:58;11.90;99.90
25450;DHT22;13371;52.080;5.624;2023-11-21T04:17:24;12.10;99.90
25450;DHT22;13371;52.080;5.624;2023-11-21T04:19:50;12.10;99.90
25450;DHT22;13371;52.080;5.624;2023-11-21T04:22:15;12.00;99.90
25450;DHT22;13371;52.080;5.624;2023-11-21T04:24:41;12.10;99.90
25450;DHT22;13371;52.080;5.624;2023-11-21T04:27:06;12.20;99.90
25450;DHT22;13371;52.080;5.624;2023-11-21T04:29:32;12.10;99.90
25450;DHT22;13371;52.080;5.624;2023-11-21T04:31:58;12.10;99.90
25450;DHT22;13371;52.080;5.624;2023-11-21T04:34:23;12.30;99.90
25450;DHT22;13371;52.080;5.624;2023-11-21T04:36:49;12.40;99.90
25450;DHT22;13371;52.080;5.624;2023-11-21T04:39:15;12.40;99.90
25450;DHT22;13371;52.080;5.624;2023-11-21T04:41:41;12.50;99.90
25450;DHT22;13371;52.080;5.624;2023-11-21T04:44:06;12.40;99.90
25450;DHT22;13371;52.080;5.624;2023-11-21T04:46:32;12.40;99.90
25450;DHT22;13371;52.080;5.624;2023-11-21T04:48:58;12.40;99.90
25450;DHT22;13371;52.080;5.624;2023-11-21T04:51:24;12.40;99.90
25450;DHT22;13371;52.080;5.624;2023-11-21T04:53:49;12.50;99.90
25450;DHT22;13371;52.080;5.624;2023-11-21T04:56:15;12.60;99.90
25450;DHT22;13371;52.080;5.624;2023-11-21T04:58:41;12.60;99.90
25450;DHT22;13371;52.080;5.624;2023-11-21T05:01:07;12.60;99.90
25450;DHT22;13371;52.080;5.624;2023-11-21T05:03:33;12.60;99.90
25450;DHT22;13371;52.080;5.624;2023-11-21T05:05:59;12.60;99.90
25450;DHT22;13371;52.080;5.624;2023-11-21T05:08:25;12.70;99.90
25450;DHT22;13371;52.080;5.624;2023-11-21T05:10:51;12.70;99.90
25450;DHT22;13371;52.080;5.624;2023-11-21T05:13:17;12.60;99.90
25450;DHT22;13371;52.080;5.624;2023-11-21T05:15:44;12.70;99.90
25450;DHT22;13371;52.080;5.624;2023-11-21T05:18:10;12.60;99.90
25450;DHT22;13371;52.080;5.624;2023-11-21T05:20:36;12.60;99.90
25450;DHT22;13371;52.080;5.624;2023-11-21T05:23:03;12.60;99.90
25450;DHT22;13371;52.080;5.624;2023-11-21T05:25:29;12.60;99.90
25450;DHT22;13371;52.080;5.624;2023-11-21T05:27:54;12.60;99.90
25450;DHT22;13371;52.080;5.624;2023-11-21T05:30:21;12.40;99.90
25450;DHT22;13371;52.080;5.624;2023-11-21T05:32:47;12.50;99.90
25450;DHT22;13371;52.080;5.624;2023-11-21T05:35:12;12.60;99.90
25450;DHT22;13371;52.080;5.624;2023-11-21T05:37:42;12.60;99.90
25450;DHT22;13371;52.080;5.624;2023-11-21T05:40:08;12.80;99.90
25450;DHT22;13371;52.080;5.624;2023-11-21T05:42:35;12.90;99.90
25450;DHT22;13371;52.080;5.624;2023-11-21T05:45:02;13.00;99.90
25450;DHT22;13371;52.080;5.624;2023-11-21T05:47:46;12.80;99.90
25450;DHT22;13371;52.080;5.624;2023-11-21T05:50:14;12.80;99.90
25450;DHT22;13371;52.080;5.624;2023-11-21T05:52:44;12.80;99.90
25450;DHT22;13371;52.080;5.624;2023-11-21T05:55:10;12.80;99.90
25450;DHT22;13371;52.080;5.624;2023-11-21T05:57:37;12.80;99.90
25450;DHT22;13371;52.080;5.624;2023-11-21T06:00:14;12.70;99.90
25450;DHT22;13371;52.080;5.624;2023-11-21T06:02:52;12.80;99.90
25450;DHT22;13371;52.080;5.624;2023-11-21T06:05:19;12.70;99.90
25450;DHT22;13371;52.080;5.624;2023-11-21T06:07:46;12.80;99.90
25450;DHT22;13371;52.080;5.624;2023-11-21T06:10:12;12.90;99.90
25450;DHT22;13371;52.080;5.624;2023-11-21T06:12:41;13.00;99.90
25450;DHT22;13371;52.080;5.624;2023-11-21T06:15:09;13.10;99.90
25450;DHT22;13371;52.080;5.624;2023-11-21T06:17:35;13.20;99.90
25450;DHT22;13371;52.080;5.624;2023-11-21T06:20:06;13.20;99.90
25450;DHT22;13371;52.080;5.624;2023-11-21T06:22:46;13.20;99.90
25450;DHT22;13371;52.080;5.624;2023-11-21T06:25:13;13.20;99.90
25450;DHT22;13371;52.080;5.624;2023-11-21T06:27:43;13.10;99.90
25450;DHT22;13371;52.080;5.624;2023-11-21T06:30:10;13.10;99.90
25450;DHT22;13371;52.080;5.624;2023-11-21T06:32:38;13.10;99.90
25450;DHT22;13371;52.080;5.624;2023-11-21T06:35:05;13.00;99.90
25450;DHT22;13371;52.080;5.624;2023-11-21T06:37:32;12.90;99.90
25450;DHT22;13371;52.080;5.624;2023-11-21T06:39:58;12.90;99.90
25450;DHT22;13371;52.080;5.624;2023-11-21T06:42:25;13.00;99.90
25450;DHT22;13371;52.080;5.624;2023-11-21T06:44:51;13.00;99.90
25450;DHT22;13371;52.080;5.624;2023-11-21T06:47:22;13.10;99.90
25450;DHT22;13371;52.080;5.624;2023-11-21T06:49:51;13.10;99.90
25450;DHT22;13371;52.080;5.624;2023-11-21T06:52:17;13.00;99.90
25450;DHT22;13371;52.080;5.624;2023-11-21T06:54:43;12.90;99.90
25450;DHT22;13371;52.080;5.624;2023-11-21T06:57:09;13.20;99.90
25450;DHT22;13371;52.080;5.624;2023-11-21T06:59:35;13.30;99.90
25450;DHT22;13371;52.080;5.624;2023-11-21T07:02:00;13.30;99.90
25450;DHT22;13371;52.080;5.624;2023-11-21T07:04:26;13.30;99.90
25450;DHT22;13371;52.080;5.624;2023-11-21T07:06:53;13.30;99.90
25450;DHT22;13371;52.080;5.624;2023-11-21T07:09:19;13.10;99.90
25450;DHT22;13371;52.080;5.624;2023-11-21T07:11:48;13.10;99.90
25450;DHT22;13371;52.080;5.624;2023-11-21T07:14:14;13.10;99.90
25450;DHT22;13371;52.080;5.624;2023-11-21T07:16:40;13.20;99.90
25450;DHT22;13371;52.080;5.624;2023-11-21T07:19:06;13.20;99.90
25450;DHT22;13371;52.080;5.624;2023-11-21T07:21:32;13.30;99.90
25450;DHT22;13371;52.080;5.624;2023-11-21T07:24:02;13.20;99.90
25450;DHT22;13371;52.080;5.624;2023-11-21T07:26:29;13.20;99.90
25450;DHT22;13371;52.080;5.624;2023-11-21T07:28:54;13.30;99.90
25450;DHT22;13371;52.080;5.624;2023-11-21T07:31:21;13.30;99.90
25450;DHT22;13371;52.080;5.624;2023-11-21T07:33:47;13.30;99.90
25450;DHT22;13371;52.080;5.624;2023-11-21T07:36:14;13.40;99.90
25450;DHT22;13371;52.080;5.624;2023-11-21T07:38:41;13.40;99.90
25450;DHT22;13371;52.080;5.624;2023-11-21T07:41:07;13.40;99.90
25450;DHT22;13371;52.080;5.624;2023-11-21T07:43:36;13.60;99.90
25450;DHT22;13371;52.080;5.624;2023-11-21T07:46:02;13.60;99.90
25450;DHT22;13371;52.080;5.624;2023-11-21T07:48:34;13.70;99.90
25450;DHT22;13371;52.080;5.624;2023-11-21T07:51:01;13.60;99.90
25450;DHT22;13371;52.080;5.624;2023-11-21T07:53:27;13.70;99.90
25450;DHT22;13371;52.080;5.624;2023-11-21T07:55:55;13.70;99.90
25450;DHT22;13371;52.080;5.624;2023-11-21T07:58:21;13.70;99.90
25450;DHT22;13371;52.080;5.624;2023-11-21T08:00:47;13.70;99.90
25450;DHT22;13371;52.080;5.624;2023-11-21T08:03:13;13.70;99.90
25450;DHT22;13371;52.080;5.624;2023-11-21T08:05:39;13.80;99.90
25450;DHT22;13371;52.080;5.624;2023-11-21T08:08:05;13.80;99.90
25450;DHT22;13371;52.080;5.624;2023-11-21T08:10:30;13.80;99.90
25450;DHT22;13371;52.080;5.624;2023-11-21T08:12:56;13.80;99.90
25450;DHT22;13371;52.080;5.624;2023-11-21T08:15:22;13.80;99.90
25450;DHT22;13371;52.080;5.624;2023-11-21T08:17:48;13.80;99.90
25450;DHT22;13371;52.080;5.624;2023-11-21T08:20:14;14.10;99.90
25450;DHT22;13371;52.080;5.624;2023-11-21T08:22:43;13.90;99.90
25450;DHT22;13371;52.080;5.624;2023-11-21T08:25:09;13.90;99.90
25450;DHT22;13371;52.080;5.624;2023-11-21T08:27:34;14.10;99.90
25450;DHT22;13371;52.080;5.624;2023-11-21T08:30:01;14.10;99.90
25450;DHT22;13371;52.080;5.624;2023-11-21T08:32:26;14.10;99.90
25450;DHT22;13371;52.080;5.624;2023-11-21T08:34:52;14.10;99.90
25450;DHT22;13371;52.080;5.624;2023-11-21T08:37:18;14.20;99.90
25450;DHT22;13371;52.080;5.624;2023-11-21T08:39:44;14.10;99.90
25450;DHT22;13371;52.080;5.624;2023-11-21T08:42:10;14.10;99.90
25450;DHT22;13371;52.080;5.624;2023-11-21T08:44:35;14.40;99.90
25450;DHT22;13371;52.080;5.624;2023-11-21T08:47:01;14.50;99.90
25450;DHT22;13371;52.080;5.624;2023-11-21T08:49:27;14.50;99.90
25450;DHT22;13371;52.080;5.624;2023-11-21T08:51:54;14.30;99.90
25450;DHT22;13371;52.080;5.624;2023-11-21T08:54:25;14.10;99.90
25450;DHT22;13371;52.080;5.624;2023-11-21T08:56:54;13.90;99.90
25450;DHT22;13371;52.080;5.624;2023-11-21T08:59:20;13.90;99.90
25450;DHT22;13371;52.080;5.624;2023-11-21T09:01:46;13.60;99.90
25450;DHT22;13371;52.080;5.624;2023-11-21T09:04:12;13.40;99.90
25450;DHT22;13371;52.080;5.624;2023-11-21T09:06:39;13.60;99.90
25450;DHT22;13371;52.080;5.624;2023-11-21T09:09:05;13.50;99.90
25450;DHT22;13371;52.080;5.624;2023-11-21T09:11:32;13.40;99.90
25450;DHT22;13371;52.080;5.624;2023-11-21T09:13:59;13.20;99.90
25450;DHT22;13371;52.080;5.624;2023-11-21T09:16:25;13.10;99.90
25450;DHT22;13371;52.080;5.624;2023-11-21T09:18:51;13.20;99.90
25450;DHT22;13371;52.080;5.624;2023-11-21T09:21:16;13.00;99.90
25450;DHT22;13371;52.080;5.624;2023-11-21T09:23:44;12.90;99.90
25450;DHT22;13371;52.080;5.624;2023-11-21T09:26:10;12.90;99.90
25450;DHT22;13371;52.080;5.624;2023-11-21T09:28:36;13.00;99.90
25450;DHT22;13371;52.080;5.624;2023-11-21T09:31:05;13.00;99.90
25450;DHT22;13371;52.080;5.624;2023-11-21T09:33:34;13.00;99.90
25450;DHT22;13371;52.080;5.624;2023-11-21T09:35:59;12.70;99.90
25450;DHT22;13371;52.080;5.624;2023-11-21T09:38:25;12.80;99.90
25450;DHT22;13371;52.080;5.624;2023-11-21T09:40:51;12.70;99.90
25450;DHT22;13371;52.080;5.624;2023-11-21T09:43:19;12.50;99.90
25450;DHT22;13371;52.080;5.624;2023-11-21T09:45:46;12.80;99.90
25450;DHT22;13371;52.080;5.624;2023-11-21T09:48:14;12.80;99.90
25450;DHT22;13371;52.080;5.624;2023-11-21T09:50:42;12.80;99.90
25450;DHT22;13371;52.080;5.624;2023-11-21T09:55:43;12.70;99.90
25450;DHT22;13371;52.080;5.624;2023-11-21T09:58:10;12.60;99.90
25450;DHT22;13371;52.080;5.624;2023-11-21T10:00:40;12.60;99.90
25450;DHT22;13371;52.080;5.624;2023-11-21T10:03:06;12.60;99.90
25450;DHT22;13371;52.080;5.624;2023-11-21T10:05:32;12.70;99.90
25450;DHT22;13371;52.080;5.624;2023-11-21T10:08:00;12.70;99.90
25450;DHT22;13371;52.080;5.624;2023-11-21T10:10:27;12.80;99.90
25450;DHT22;13371;52.080;5.624;2023-11-21T10:12:56;12.60;99.90
25450;DHT22;13371;52.080;5.624;2023-11-21T10:15:23;12.70;99.90
25450;DHT22;13371;52.080;5.624;2023-11-21T10:17:53;12.90;99.90
25450;DHT22;13371;52.080;5.624;2023-11-21T10:20:20;13.20;99.90
25450;DHT22;13371;52.080;5.624;2023-11-21T10:22:46;13.00;99.90
25450;DHT22;13371;52.080;5.624;2023-11-21T10:25:12;12.90;99.90
25450;DHT22;13371;52.080;5.624;2023-11-21T10:27:42;13.10;99.90
25450;DHT22;13371;52.080;5.624;2023-11-21T10:30:09;12.80;99.90
25450;DHT22;13371;52.080;5.624;2023-11-21T10:32:41;12.60;99.90
25450;DHT22;13371;52.080;5.624;2023-11-21T10:35:08;12.60;99.90
25450;DHT22;13371;52.080;5.624;2023-11-21T10:37:40;12.70;99.90
25450;DHT22;13371;52.080;5.624;2023-11-21T10:40:07;12.80;99.90
25450;DHT22;13371;52.080;5.624;2023-11-21T10:42:33;12.70;99.90
25450;DHT22;13371;52.080;5.624;2023-11-21T10:44:59;12.70;99.90
25450;DHT22;13371;52.080;5.624;2023-11-21T10:47:26;13.00;99.90
25450;DHT22;13371;52.080;5.624;2023-11-21T10:49:52;12.80;99.90
25450;DHT22;13371;52.080;5.624;2023-11-21T10:52:20;13.00;99.90
25450;DHT22;13371;52.080;5.624;2023-11-21T10:54:46;13.10;99.90
25450;DHT22;13371;52.080;5.624;2023-11-21T10:57:17;12.80;99.90
25450;DHT22;13371;52.080;5.624;2023-11-21T10:59:47;12.80;99.90
25450;DHT22;13371;52.080;5.624;2023-11-21T11:02:23;12.90;99.90
25450;DHT22;13371;52.080;5.624;2023-11-21T11:04:54;12.90;99.90
25450;DHT22;13371;52.080;5.624;2023-11-21T11:07:26;12.80;99.90
25450;DHT22;13371;52.080;5.624;2023-11-21T11:09:53;12.30;99.90
25450;DHT22;13371;52.080;5.624;2023-11-21T11:12:19;12.10;99.90
25450;DHT22;13371;52.080;5.624;2023-11-21T11:14:45;12.10;99.90
25450;DHT22;13371;52.080;5.624;2023-11-21T11:17:10;12.30;99.90
25450;DHT22;13371;52.080;5.624;2023-11-21T11:19:36;12.10;99.90
25450;DHT22;13371;52.080;5.624;2023-11-21T11:27:34;12.10;99.90
25450;DHT22;13371;52.080;5.624;2023-11-21T11:30:23;12.00;99.90
25450;DHT22;13371;52.080;5.624;2023-11-21T11:33:13;12.00;99.90
25450;DHT22;13371;52.080;5.624;2023-11-21T11:35:55;12.10;99.90
25450;DHT22;13371;52.080;5.624;2023-11-21T11:38:22;12.30;99.90
25450;DHT22;13371;52.080;5.624;2023-11-21T11:40:53;12.40;99.90
25450;DHT22;13371;52.080;5.624;2023-11-21T11:43:26;12.50;99.90
25450;DHT22;13371;52.080;5.624;2023-11-21T11:45:55;12.80;99.90
25450;DHT22;13371;52.080;5.624;2023-11-21T11:48:22;12.50;99.90
25450;DHT22;13371;52.080;5.624;2023-11-21T11:51:05;12.60;99.90
25450;DHT22;13371;52.080;5.624;2023-11-21T11:53:47;12.70;99.90
25450;DHT22;13371;52.080;5.624;2023-11-21T11:56:28;12.80;99.90
25450;DHT22;13371;52.080;5.624;2023-11-21T11:58:57;12.80;99.90
25450;DHT22;13371;52.080;5.624;2023-11-21T12:01:25;13.00;99.90
25450;DHT22;13371;52.080;5.624;2023-11-21T12:06:52;12.80;99.90
25450;DHT22;13371;52.080;5.624;2023-11-21T12:09:20;12.90;99.90
25450;DHT22;13371;52.080;5.624;2023-11-21T12:11:48;13.00;99.90
25450;DHT22;13371;52.080;5.624;2023-11-21T12:14:14;12.90;99.90
25450;DHT22;13371;52.080;5.624;2023-11-21T12:16:40;12.90;99.90
25450;DHT22;13371;52.080;5.624;2023-11-21T12:19:08;12.90;99.90
25450;DHT22;13371;52.080;5.624;2023-11-21T12:21:33;12.70;99.90
25450;DHT22;13371;52.080;5.624;2023-11-21T12:23:59;12.50;99.90
25450;DHT22;13371;52.080;5.624;2023-11-21T12:26:25;12.50;99.90
25450;DHT22;13371;52.080;5.624;2023-11-21T12:28:54;12.50;99.90
25450;DHT22;13371;52.080;5.624;2023-11-21T12:31:25;12.50;99.90
25450;DHT22;13371;52.080;5.624;2023-11-21T12:33:51;12.50;99.90
25450;DHT22;13371;52.080;5.624;2023-11-21T12:36:17;12.30;99.90
25450;DHT22;13371;52.080;5.624;2023-11-21T12:38:43;12.50;99.90
25450;DHT22;13371;52.080;5.624;2023-11-21T12:41:09;12.50;99.90
25450;DHT22;13371;52.080;5.624;2023-11-21T12:43:35;12.60;99.90
25450;DHT22;13371;52.080;5.624;2023-11-21T12:46:06;12.40;99.90
25450;DHT22;13371;52.080;5.624;2023-11-21T12:48:32;12.40;99.90
25450;DHT22;13371;52.080;5.624;2023-11-21T12:50:57;12.30;99.90
25450;DHT22;13371;52.080;5.624;2023-11-21T12:53:25;12.50;99.90
25450;DHT22;13371;52.080;5.624;2023-11-21T12:55:51;12.70;99.90
25450;DHT22;13371;52.080;5.624;2023-11-21T12:58:17;12.70;99.90
25450;DHT22;13371;52.080;5.624;2023-11-21T13:00:47;12.70;99.90
25450;DHT22;13371;52.080;5.624;2023-11-21T13:03:14;12.90;99.90
25450;DHT22;13371;52.080;5.624;2023-11-21T13:05:46;12.60;99.90
25450;DHT22;13371;52.080;5.624;2023-11-21T13:08:16;12.50;99.90
25450;DHT22;13371;52.080;5.624;2023-11-21T13:10:45;12.90;99.90
25450;DHT22;13371;52.080;5.624;2023-11-21T13:13:13;13.20;99.90
25450;DHT22;13371;52.080;5.624;2023-11-21T13:15:53;13.10;99.90
25450;DHT22;13371;52.080;5.624;2023-11-21T13:18:22;12.90;99.90
25450;DHT22;13371;52.080;5.624;2023-11-21T13:20:48;12.70;99.90
25450;DHT22;13371;52.080;5.624;2023-11-21T13:23:15;12.70;99.90
25450;DHT22;13371;52.080;5.624;2023-11-21T13:25:43;12.20;99.90
25450;DHT22;13371;52.080;5.624;2023-11-21T13:28:11;12.40;99.90
25450;DHT22;13371;52.080;5.624;2023-11-21T13:30:37;12.50;99.90
25450;DHT22;13371;52.080;5.624;2023-11-21T13:33:06;12.80;99.90
25450;DHT22;13371;52.080;5.624;2023-11-21T13:35:38;13.10;99.90
25450;DHT22;13371;52.080;5.624;2023-11-21T13:38:14;13.30;99.90
25450;DHT22;13371;52.080;5.624;2023-11-21T13:40:46;12.80;99.90
25450;DHT22;13371;52.080;5.624;2023-11-21T13:43:13;12.90;99.90
25450;DHT22;13371;52.080;5.624;2023-11-21T13:45:44;12.90;99.90
25450;DHT22;13371;52.080;5.624;2023-11-21T13:48:10;13.00;99.90
25450;DHT22;13371;52.080;5.624;2023-11-21T13:50:43;13.00;99.90
25450;DHT22;13371;52.080;5.624;2023-11-21T13:53:23;12.70;99.90
25450;DHT22;13371;52.080;5.624;2023-11-21T13:55:53;12.70;99.90
25450;DHT22;13371;52.080;5.624;2023-11-21T13:58:20;12.30;99.90
25450;DHT22;13371;52.080;5.624;2023-11-21T14:01:07;12.10;99.90
25450;DHT22;13371;52.080;5.624;2023-11-21T14:03:42;12.00;99.90
25450;DHT22;13371;52.080;5.624;2023-11-21T14:06:17;12.00;99.90
25450;DHT22;13371;52.080;5.624;2023-11-21T14:08:50;12.00;99.90
25450;DHT22;13371;52.080;5.624;2023-11-21T14:11:15;11.90;99.90
25450;DHT22;13371;52.080;5.624;2023-11-21T14:13:45;12.00;99.90
25450;DHT22;13371;52.080;5.624;2023-11-21T14:16:14;11.90;99.90
25450;DHT22;13371;52.080;5.624;2023-11-21T14:18:40;12.00;99.90
25450;DHT22;13371;52.080;5.624;2023-11-21T14:21:20;12.00;99.90
25450;DHT22;13371;52.080;5.624;2023-11-21T14:23:47;11.90;99.90
25450;DHT22;13371;52.080;5.624;2023-11-21T14:26:13;11.70;99.90
25450;DHT22;13371;52.080;5.624;2023-11-21T14:28:40;11.80;99.90
25450;DHT22;13371;52.080;5.624;2023-11-21T14:31:07;11.90;99.90
25450;DHT22;13371;52.080;5.624;2023-11-21T14:33:33;12.10;99.90
25450;DHT22;13371;52.080;5.624;2023-11-21T14:35:59;11.80;99.90
25450;DHT22;13371;52.080;5.624;2023-11-21T14:38:24;11.70;99.90
25450;DHT22;13371;52.080;5.624;2023-11-21T14:40:50;11.70;99.90
25450;DHT22;13371;52.080;5.624;2023-11-21T14:43:15;11.60;99.90
25450;DHT22;13371;52.080;5.624;2023-11-21T14:45:42;11.60;99.90
25450;DHT22;13371;52.080;5.624;2023-11-21T14:48:08;11.60;99.90
25450;DHT22;13371;52.080;5.624;2023-11-21T14:50:41;11.80;99.90
25450;DHT22;13371;52.080;5.624;2023-11-21T14:53:11;11.70;99.90
25450;DHT22;13371;52.080;5.624;2023-11-21T14:55:39;11.70;99.90
25450;DHT22;13371;52.080;5.624;2023-11-21T14:58:19;11.40;99.90
25450;DHT22;13371;52.080;5.624;2023-11-21T15:00:57;11.30;99.90
25450;DHT22;13371;52.080;5.624;2023-11-21T15:03:24;11.40;99.90
25450;DHT22;13371;52.080;5.624;2023-11-21T15:06:10;11.50;99.90
25450;DHT22;13371;52.080;5.624;2023-11-21T15:08:58;11.50;99.90
25450;DHT22;13371;52.080;5.624;2023-11-21T15:11:36;11.30;99.90
25450;DHT22;13371;52.080;5.624;2023-11-21T15:14:04;11.00;99.90
25450;DHT22;13371;52.080;5.624;2023-11-21T15:16:35;10.90;99.90
25450;DHT22;13371;52.080;5.624;2023-11-21T15:19:11;11.20;99.90
25450;DHT22;13371;52.080;5.624;2023-11-21T15:21:43;11.00;99.90
25450;DHT22;13371;52.080;5.624;2023-11-21T15:24:09;10.80;99.90
25450;DHT22;13371;52.080;5.624;2023-11-21T15:26:36;10.80;99.90
25450;DHT22;13371;52.080;5.624;2023-11-21T15:29:01;10.90;99.90
25450;DHT22;13371;52.080;5.624;2023-11-21T15:31:27;11.10;99.90
25450;DHT22;13371;52.080;5.624;2023-11-21T15:33:52;10.80;99.90
25450;DHT22;13371;52.080;5.624;2023-11-21T15:36:19;10.90;99.90
25450;DHT22;13371;52.080;5.624;2023-11-21T15:38:46;10.70;99.90
25450;DHT22;13371;52.080;5.624;2023-11-21T15:41:11;10.60;99.90
25450;DHT22;13371;52.080;5.624;2023-11-21T15:43:37;10.50;99.90